createdAt,value
2018-05-14T00:00:08.999Z,64
2018-05-14T00:01:08.400Z,64.4
2018-05-14T00:02:07.737Z,64.7
2018-05-14T00:03:07.048Z,64.4
2018-05-14T00:04:06.256Z,64.8
2018-05-14T00:05:05.157Z,64.5
2018-05-14T00:05:35.899Z,64.5
2018-05-14T00:06:06.420Z,64.4
2018-05-14T00:06:36.831Z,64.4
2018-05-14T00:07:07.461Z,64.3
2018-05-14T00:07:37.981Z,64.3
2018-05-14T00:08:08.507Z,64.4
2018-05-14T00:08:38.929Z,64.4
2018-05-14T00:10:01.801Z,64.3
2018-05-14T00:11:00.911Z,64.4
2018-05-14T00:12:00.631Z,64.9
2018-05-14T00:12:59.961Z,64.4
2018-05-14T00:13:59.169Z,64.1
2018-05-14T00:14:58.487Z,63.8
2018-05-14T00:16:56.748Z,64.5
2018-05-14T00:17:27.374Z,64.5
2018-05-14T00:18:55.789Z,64.5
2018-05-14T00:19:26.033Z,64.5
2018-05-14T00:20:53.822Z,64.6
2018-05-14T00:21:53.143Z,64.6
2018-05-14T00:22:52.568Z,64.7
2018-05-14T00:23:51.773Z,64.2
2018-05-14T00:24:51.216Z,64.1
2018-05-14T00:25:50.432Z,64.7
2018-05-14T00:26:49.766Z,64.7
2018-05-14T00:27:49.087Z,64.9
2018-05-14T00:28:48.405Z,64.8
2018-05-14T00:29:19.039Z,64.8
2018-05-14T00:29:49.270Z,64.6
2018-05-14T00:30:19.902Z,64.6
2018-05-14T00:30:50.031Z,65
2018-05-14T00:32:45.611Z,65
2018-05-14T00:33:44.821Z,65
2018-05-14T00:34:44.038Z,65.1
2018-05-14T00:35:43.469Z,65.3
2018-05-14T00:36:42.686Z,65.2
2018-05-14T00:37:41.892Z,65
2018-05-14T00:38:41.109Z,64.9
2018-05-14T00:40:39.811Z,65.1
2018-05-14T00:41:38.917Z,65.1
2018-05-14T00:42:38.138Z,65.6
2018-05-14T00:43:37.454Z,64.9
2018-05-14T00:44:36.775Z,65.4
2018-05-14T00:45:36.098Z,65.3
2018-05-14T00:46:35.319Z,65.1
2018-05-14T00:48:33.939Z,65
2018-05-14T00:49:04.460Z,65
2018-05-14T00:50:32.470Z,65.5
2018-05-14T00:52:30.996Z,65.2
2018-05-14T00:53:30.314Z,65.5
2018-05-14T00:54:29.745Z,66.2
2018-05-14T00:55:29.070Z,66
2018-05-14T00:57:27.673Z,66.3
2018-05-14T00:58:26.663Z,66.6
2018-05-14T00:59:25.993Z,66.4
2018-05-14T00:59:56.342Z,66.4
2018-05-14T01:00:26.971Z,66.5
2018-05-14T01:01:24.670Z,66.6
2018-05-14T01:02:24.005Z,66.3
2018-05-14T01:03:23.121Z,66.9
2018-05-14T01:04:22.553Z,66.8
2018-05-14T01:06:21.148Z,67
2018-05-14T01:07:20.477Z,66.8
2018-05-14T01:08:19.577Z,67.4
2018-05-14T01:09:18.793Z,67.2
2018-05-14T01:11:17.400Z,66.7
2018-05-14T01:12:16.840Z,67.3
2018-05-14T01:13:16.159Z,67.5
2018-05-14T01:14:15.373Z,67.3
2018-05-14T01:14:45.791Z,67.3
2018-05-14T01:15:16.021Z,67.4
2018-05-14T01:15:46.192Z,67.4
2018-05-14T01:17:13.193Z,67.1
2018-05-14T01:18:12.525Z,67.2
2018-05-14T01:19:11.862Z,67.5
2018-05-14T01:20:10.791Z,67.5
2018-05-14T01:22:09.611Z,68
2018-05-14T01:23:08.938Z,67.5
2018-05-14T01:24:08.147Z,68.5
2018-05-14T01:25:07.071Z,68
2018-05-14T01:25:37.595Z,68
2018-05-14T01:27:06.310Z,68.5
2018-05-14T01:27:37.100Z,68.5
2018-05-14T01:28:07.826Z,68.6
2018-05-14T01:31:02.931Z,68.6
2018-05-14T01:32:02.258Z,68.5
2018-05-14T01:33:01.363Z,68.5
2018-05-14T01:34:00.870Z,69.1
2018-05-14T01:36:58.394Z,69
2018-05-14T01:37:57.713Z,69.1
2018-05-14T01:38:56.819Z,69.4
2018-05-14T01:40:55.729Z,69.4
2018-05-14T01:41:55.075Z,69.6
2018-05-14T01:42:54.292Z,69.6
2018-05-14T01:43:53.112Z,69.8
2018-05-14T01:44:52.435Z,69.8
2018-05-14T01:45:51.753Z,69.8
2018-05-14T01:46:50.969Z,69.6
2018-05-14T01:50:48.149Z,69.6
2018-05-14T01:51:47.473Z,69.8
2018-05-14T01:52:46.581Z,70.1
2018-05-14T01:53:45.809Z,70.1
2018-05-14T01:54:45.244Z,70
2018-05-14T01:55:15.483Z,70
2018-05-14T01:55:45.738Z,70.1
2018-05-14T01:56:15.978Z,70.1
2018-05-14T01:57:42.877Z,69.6
2018-05-14T01:58:13.524Z,69.6
2018-05-14T01:59:41.530Z,69.9
2018-05-14T02:01:40.239Z,70.4
2018-05-14T02:02:39.525Z,70.4
2018-05-14T02:03:38.630Z,70.2
2018-05-14T02:04:37.947Z,70.3
2018-05-14T02:05:08.185Z,70.3
2018-05-14T02:07:35.583Z,70.6
2018-05-14T02:08:06.337Z,70.6
2018-05-14T02:08:36.567Z,70.6
2018-05-14T02:09:06.803Z,70.6
2018-05-14T02:10:33.296Z,70.7
2018-05-14T02:11:32.507Z,71.1
2018-05-14T02:12:31.806Z,71.1
2018-05-14T02:13:31.021Z,71.3
2018-05-14T02:14:30.243Z,71.2
2018-05-14T02:15:29.564Z,71.1
2018-05-14T02:16:29.012Z,71.7
2018-05-14T02:17:28.220Z,71.5
2018-05-14T02:18:27.646Z,71.3
2018-05-14T02:18:57.875Z,71.3
2018-05-14T02:19:28.107Z,71.1
2018-05-14T02:19:58.740Z,71.1
2018-05-14T02:20:28.970Z,71.3
2018-05-14T02:21:25.167Z,71.1
2018-05-14T02:22:24.599Z,71.2
2018-05-14T02:23:23.919Z,71.7
2018-05-14T02:24:23.236Z,71.8
2018-05-14T02:25:22.557Z,72.1
2018-05-14T02:26:21.492Z,71.9
2018-05-14T02:27:20.809Z,71.6
2018-05-14T02:30:18.503Z,71.6
2018-05-14T02:31:17.733Z,71.5
2018-05-14T02:32:17.055Z,71.8
2018-05-14T02:33:16.288Z,72.1
2018-05-14T02:35:15.104Z,72
2018-05-14T02:36:13.922Z,72.4
2018-05-14T02:38:12.658Z,72.3
2018-05-14T02:38:42.898Z,72.3
2018-05-14T02:39:13.142Z,72.4
2018-05-14T02:39:43.660Z,72.4
2018-05-14T02:41:10.664Z,72.5
2018-05-14T02:42:09.483Z,72.6
2018-05-14T02:44:07.984Z,72.6
2018-05-14T02:45:07.102Z,72.7
2018-05-14T02:46:06.929Z,73.1
2018-05-14T02:47:05.862Z,72.8
2018-05-14T02:49:04.367Z,73.3
2018-05-14T02:50:03.590Z,73.4
2018-05-14T02:51:02.805Z,73.3
2018-05-14T02:52:02.011Z,73.8
2018-05-14T02:53:01.527Z,73.5
2018-05-14T02:54:59.945Z,73.6
2018-05-14T02:55:58.963Z,73.5
2018-05-14T02:56:58.410Z,73.7
2018-05-14T02:57:57.850Z,73.5
2018-05-14T02:58:56.796Z,73.6
2018-05-14T02:59:56.034Z,73.6
2018-05-14T03:00:55.271Z,73.7
2018-05-14T03:01:54.718Z,73.6
2018-05-14T03:02:53.847Z,73.4
2018-05-14T03:03:53.200Z,73.6
2018-05-14T03:04:23.874Z,73.6
2018-05-14T03:04:54.691Z,73.3
2018-05-14T03:05:25.084Z,73.3
2018-05-14T03:05:55.733Z,73.2
2018-05-14T03:07:49.952Z,73.1
2018-05-14T03:10:47.957Z,73.5
2018-05-14T03:12:46.073Z,73.4
2018-05-14T03:13:45.462Z,73.6
2018-05-14T03:14:15.629Z,73.6
2018-05-14T03:15:44.059Z,74
2018-05-14T03:17:42.689Z,74
2018-05-14T03:19:40.914Z,74.2
2018-05-14T03:20:40.252Z,74.3
2018-05-14T03:21:39.488Z,74.1
2018-05-14T03:22:38.818Z,74.7
2018-05-14T03:23:38.044Z,74.6
2018-05-14T03:25:36.775Z,74.6
2018-05-14T03:26:35.504Z,74.5
2018-05-14T03:27:34.735Z,74.7
2018-05-14T03:28:34.067Z,74.6
2018-05-14T03:29:33.395Z,74.9
2018-05-14T03:30:32.728Z,75
2018-05-14T03:31:32.061Z,74.9
2018-05-14T03:32:31.421Z,74.7
2018-05-14T03:33:30.248Z,75.5
2018-05-14T03:34:00.795Z,75.5
2018-05-14T03:35:29.000Z,74.9
2018-05-14T03:36:28.334Z,74.9
2018-05-14T03:37:27.562Z,74.5
2018-05-14T03:38:26.418Z,74.9
2018-05-14T03:39:25.768Z,74.7
2018-05-14T03:40:25.000Z,74.6
2018-05-14T03:41:24.127Z,74.8
2018-05-14T03:42:23.360Z,74.8
2018-05-14T03:44:21.969Z,75.3
2018-05-14T03:44:52.609Z,75.3
2018-05-14T03:45:22.856Z,75.1
2018-05-14T03:45:53.513Z,75.1
2018-05-14T03:46:23.667Z,74.9
2018-05-14T03:46:54.221Z,74.9
2018-05-14T03:48:19.112Z,74.9
2018-05-14T03:49:18.243Z,74.7
2018-05-14T03:50:17.365Z,75
2018-05-14T03:51:16.761Z,74.9
2018-05-14T03:52:16.107Z,75
2018-05-14T03:53:15.439Z,75.1
2018-05-14T03:54:14.274Z,75
2018-05-14T03:54:44.924Z,75
2018-05-14T03:55:15.364Z,75.3
2018-05-14T03:55:46.009Z,75.3
2018-05-14T03:56:16.271Z,75.5
2018-05-14T03:56:46.525Z,75.5
2018-05-14T03:57:16.780Z,75.3
2018-05-14T03:57:47.496Z,75.3
2018-05-14T03:59:10.585Z,75.8
2018-05-14T04:00:10.043Z,75.8
2018-05-14T04:01:09.268Z,75.7
2018-05-14T04:02:08.526Z,75.7
2018-05-14T04:03:07.861Z,75.7
2018-05-14T04:04:06.590Z,75.7
2018-05-14T04:05:05.922Z,75.7
2018-05-14T04:06:05.038Z,75.7
2018-05-14T04:07:04.761Z,76.1
2018-05-14T04:08:03.593Z,76
2018-05-14T04:10:02.206Z,75.8
2018-05-14T04:11:01.439Z,75.9
2018-05-14T04:12:00.674Z,75.8
2018-05-14T04:13:00.126Z,75.4
2018-05-14T04:13:59.254Z,75.4
2018-05-14T04:14:58.596Z,75.7
2018-05-14T04:15:57.828Z,76
2018-05-14T04:16:56.763Z,75.7
2018-05-14T04:17:56.001Z,76
2018-05-14T04:18:55.329Z,75.5
2018-05-14T04:20:53.950Z,75.5
2018-05-14T04:21:53.067Z,75.6
2018-05-14T04:23:51.792Z,75.8
2018-05-14T04:24:50.650Z,75.5
2018-05-14T04:25:49.994Z,75.1
2018-05-14T04:26:20.636Z,75.1
2018-05-14T04:26:50.896Z,74.9
2018-05-14T04:27:21.143Z,74.9
2018-05-14T04:29:46.942Z,74.8
2018-05-14T04:30:45.954Z,74.6
2018-05-14T04:31:45.585Z,74.8
2018-05-14T04:33:43.812Z,74.4
2018-05-14T04:34:42.924Z,74.7
2018-05-14T04:35:42.263Z,74.6
2018-05-14T04:37:40.777Z,74.6
2018-05-14T04:38:40.029Z,74.9
2018-05-14T04:39:39.361Z,74.8
2018-05-14T04:42:36.974Z,74.6
2018-05-14T04:43:36.422Z,74.7
2018-05-14T04:44:35.652Z,74.6
2018-05-14T04:45:34.887Z,74.7
2018-05-14T04:46:33.721Z,74.9
2018-05-14T04:47:33.344Z,74.9
2018-05-14T04:48:32.286Z,74.6
2018-05-14T04:49:31.728Z,74.3
2018-05-14T04:50:31.239Z,74.2
2018-05-14T04:55:27.234Z,73.1
2018-05-14T04:57:25.861Z,73.2
2018-05-14T04:59:23.966Z,73.4
2018-05-14T05:00:23.214Z,73
2018-05-14T05:01:22.442Z,73.3
2018-05-14T05:02:21.885Z,73.1
2018-05-14T05:02:52.526Z,73.1
2018-05-14T05:04:20.148Z,72.5
2018-05-14T05:05:19.591Z,73
2018-05-14T05:06:19.036Z,73.2
2018-05-14T05:07:18.374Z,73.2
2018-05-14T05:09:16.703Z,73.1
2018-05-14T05:10:16.167Z,73.7
2018-05-14T05:11:14.971Z,73.4
2018-05-14T05:12:14.411Z,72.8
2018-05-14T05:14:12.631Z,72.4
2018-05-14T05:15:12.087Z,72.7
2018-05-14T05:16:11.330Z,72.7
2018-05-14T05:17:10.711Z,72.5
2018-05-14T05:18:09.796Z,72.8
2018-05-14T05:19:08.924Z,72.6
2018-05-14T05:20:08.160Z,73.2
2018-05-14T05:21:07.611Z,73.1
2018-05-14T05:22:07.067Z,73.2
2018-05-14T05:22:37.607Z,73.2
2018-05-14T05:23:08.251Z,73.2
2018-05-14T05:24:05.566Z,73
2018-05-14T05:25:04.545Z,72.7
2018-05-14T05:26:04.076Z,72.7
2018-05-14T05:27:02.912Z,72.2
2018-05-14T05:28:02.250Z,72.8
2018-05-14T05:29:01.369Z,72.5
2018-05-14T05:30:59.888Z,72.8
2018-05-14T05:31:59.005Z,72.6
2018-05-14T05:32:29.646Z,72.6
2018-05-14T05:33:00.184Z,72.7
2018-05-14T05:33:30.731Z,72.7
2018-05-14T05:34:57.249Z,73
2018-05-14T05:35:27.898Z,73
2018-05-14T05:36:55.830Z,72.2
2018-05-14T05:37:54.705Z,72.3
2018-05-14T05:38:54.035Z,72.5
2018-05-14T05:39:53.480Z,72.5
2018-05-14T05:40:52.704Z,72.1
2018-05-14T05:41:51.644Z,72.9
2018-05-14T05:42:50.879Z,72.3
2018-05-14T05:43:21.539Z,72.3
2018-05-14T05:43:52.199Z,72.1
2018-05-14T05:44:22.459Z,72.1
2018-05-14T05:44:52.722Z,72.4
2018-05-14T05:45:23.175Z,72.4
2018-05-14T05:45:53.629Z,72.3
2018-05-14T05:46:24.281Z,72.3
2018-05-14T05:47:47.275Z,71.6
2018-05-14T05:48:46.609Z,71.7
2018-05-14T05:49:45.952Z,72.5
2018-05-14T05:50:45.292Z,72
2018-05-14T05:51:44.520Z,71.9
2018-05-14T05:52:43.749Z,71.9
2018-05-14T05:53:43.185Z,71.7
2018-05-14T05:56:40.872Z,71.5
2018-05-14T05:57:11.531Z,71.5
2018-05-14T05:58:39.045Z,71
2018-05-14T05:59:38.395Z,70.7
2018-05-14T06:00:37.631Z,71
2018-05-14T06:01:36.969Z,71
2018-05-14T06:02:36.298Z,70.9
2018-05-14T06:03:06.950Z,70.9
2018-05-14T06:05:33.857Z,71.2
2018-05-14T06:06:33.297Z,70.4
2018-05-14T06:07:32.628Z,70.2
2018-05-14T06:09:31.250Z,70.2
2018-05-14T06:10:30.164Z,70.1
2018-05-14T06:12:28.770Z,70.4
2018-05-14T06:13:27.998Z,70
2018-05-14T06:13:58.556Z,70
2018-05-14T06:14:29.209Z,69.9
2018-05-14T06:14:59.479Z,69.9
2018-05-14T06:15:30.243Z,70
2018-05-14T06:16:00.677Z,70
2018-05-14T06:18:24.364Z,69.6
2018-05-14T06:19:23.691Z,69
2018-05-14T06:20:22.915Z,69.5
2018-05-14T06:21:22.137Z,69.1
2018-05-14T06:22:21.987Z,69.4
2018-05-14T06:23:20.987Z,69.4
2018-05-14T06:24:20.273Z,69.6
2018-05-14T06:24:50.612Z,69.6
2018-05-14T06:25:21.141Z,69
2018-05-14T06:25:51.286Z,69
2018-05-14T06:27:17.840Z,68.8
2018-05-14T06:28:17.295Z,68.9
2018-05-14T06:29:16.736Z,68.8
2018-05-14T06:30:16.059Z,68.3
2018-05-14T06:31:15.286Z,67.6
2018-05-14T06:32:14.526Z,67.9
2018-05-14T06:33:13.759Z,67
2018-05-14T06:34:13.103Z,67.4
2018-05-14T06:35:12.054Z,68
2018-05-14T06:37:10.780Z,67.4
2018-05-14T06:38:10.226Z,67.1
2018-05-14T06:40:08.584Z,67.2
2018-05-14T06:41:07.812Z,66.6
2018-05-14T06:43:06.556Z,66.4
2018-05-14T06:44:05.573Z,66.7
2018-05-14T06:45:05.143Z,66.6
2018-05-14T06:46:04.272Z,66.8
2018-05-14T06:47:03.609Z,65.9
2018-05-14T06:48:03.057Z,65.5
2018-05-14T06:49:02.390Z,66.2
2018-05-14T06:50:01.233Z,66.1
2018-05-14T06:51:59.855Z,64.7
2018-05-14T06:52:59.298Z,64.9
2018-05-14T06:53:58.721Z,65.5
2018-05-14T06:54:57.557Z,66.1
2018-05-14T06:56:56.386Z,65.3
2018-05-14T06:57:55.607Z,65
2018-05-14T06:58:54.940Z,65.1
2018-05-14T06:59:54.462Z,64.1
2018-05-14T07:00:53.413Z,65.2
2018-05-14T07:01:52.770Z,65.7
2018-05-14T07:02:52.113Z,64.5
2018-05-14T07:03:51.455Z,64.3
2018-05-14T07:04:50.906Z,64
2018-05-14T07:06:49.633Z,65
2018-05-14T07:07:48.369Z,63.6
2018-05-14T07:09:47.465Z,63.1
2018-05-14T07:11:45.887Z,62.6
2018-05-14T07:12:16.225Z,62.6
2018-05-14T07:13:44.254Z,63.9
2018-05-14T07:15:43.089Z,62.5
2018-05-14T07:16:42.440Z,61.8
2018-05-14T07:17:41.783Z,62.3
2018-05-14T07:20:39.394Z,61.1
2018-05-14T07:21:10.048Z,61.1
2018-05-14T07:21:40.697Z,61.3
2018-05-14T07:22:11.130Z,61.3
2018-05-14T07:22:41.776Z,60.9
2018-05-14T07:23:12.425Z,60.9
2018-05-14T07:23:42.689Z,60.6
2018-05-14T07:24:13.023Z,60.6
2018-05-14T07:27:34.679Z,60.4
2018-05-14T07:28:33.909Z,59.6
2018-05-14T07:29:33.445Z,59.6
2018-05-14T07:30:32.782Z,59.1
2018-05-14T07:32:31.499Z,58.8
2018-05-14T07:33:30.832Z,58
2018-05-14T07:34:01.422Z,58
2018-05-14T07:34:31.742Z,58.3
2018-05-14T07:35:02.400Z,58.3
2018-05-14T07:37:27.909Z,58.6
2018-05-14T07:38:27.359Z,58.2
2018-05-14T07:39:26.592Z,57.9
2018-05-14T07:42:24.383Z,56.8
2018-05-14T07:43:23.726Z,57.4
2018-05-14T07:44:23.053Z,57.3
2018-05-14T07:45:22.286Z,57.2
2018-05-14T07:48:20.398Z,57
2018-05-14T07:53:17.212Z,57.5
2018-05-14T07:53:47.860Z,57.5
2018-05-14T07:55:15.880Z,57.9
2018-05-14T08:01:11.548Z,57
2018-05-14T08:03:10.386Z,56.6
2018-05-14T08:03:40.936Z,56.6
2018-05-14T08:04:11.075Z,57.3
2018-05-14T08:04:41.617Z,57.3
2018-05-14T08:05:12.262Z,56.6
2018-05-14T08:05:43.104Z,56.6
2018-05-14T08:07:07.663Z,54.7
2018-05-14T08:09:06.283Z,55.2
2018-05-14T08:10:05.685Z,56.7
2018-05-14T08:11:05.026Z,55.6
2018-05-14T08:12:04.493Z,54.4
2018-05-14T08:13:03.722Z,56.2
2018-05-14T08:14:03.056Z,54.4
2018-05-14T08:15:02.773Z,54.7
2018-05-14T08:15:33.208Z,54.7
2018-05-14T08:17:01.226Z,55.3
2018-05-14T08:18:00.696Z,54.9
2018-05-14T08:20:58.703Z,55
2018-05-14T08:23:56.708Z,54.4
2018-05-14T08:24:56.055Z,53.6
2018-05-14T08:25:55.399Z,53.1
2018-05-14T08:26:54.625Z,54.2
2018-05-14T08:27:53.962Z,53.4
2018-05-14T08:28:53.290Z,53.2
2018-05-14T08:31:51.689Z,53.3
2018-05-14T08:33:50.309Z,53.6
2018-05-14T08:34:49.548Z,53.6
2018-05-14T08:36:48.541Z,53.9
2018-05-14T08:39:46.261Z,52.5
2018-05-14T08:40:45.990Z,52.8
2018-05-14T08:41:45.336Z,52.5
2018-05-14T08:43:44.070Z,53.3
2018-05-14T08:44:43.400Z,52.5
2018-05-14T08:47:41.646Z,52.5
2018-05-14T08:48:40.579Z,51.7
2018-05-14T08:49:40.421Z,51.1
2018-05-14T08:50:39.750Z,51.8
2018-05-14T08:51:39.091Z,51.8
2018-05-14T08:53:37.828Z,52.4
2018-05-14T08:54:36.854Z,52.4
2018-05-14T08:55:36.492Z,52.5
2018-05-14T08:56:35.839Z,52.1
2018-05-14T08:57:35.247Z,51.7
2018-05-14T08:58:34.691Z,51.8
2018-05-14T09:00:33.302Z,52
2018-05-14T09:03:31.711Z,51.3
2018-05-14T09:04:31.074Z,50.4
2018-05-14T09:06:29.594Z,50.9
2018-05-14T09:08:28.320Z,50.6
2018-05-14T09:09:28.051Z,50.7
2018-05-14T09:13:25.339Z,47.6
2018-05-14T09:13:55.768Z,47.6
2018-05-14T09:15:24.086Z,48.6
2018-05-14T09:16:23.315Z,48.3
2018-05-14T09:17:23.148Z,48.9
2018-05-14T09:19:21.894Z,47.7
2018-05-14T09:22:19.655Z,47.3
2018-05-14T09:23:19.605Z,47.3
2018-05-14T09:24:18.557Z,46.4
2018-05-14T09:26:17.392Z,47.6
2018-05-14T09:27:17.018Z,48.2
2018-05-14T09:29:15.864Z,47
2018-05-14T09:31:14.573Z,47.5
2018-05-14T09:33:13.654Z,45.7
2018-05-14T09:34:12.488Z,46.5
2018-05-14T09:35:12.324Z,47.2
2018-05-14T09:36:11.559Z,46.6
2018-05-14T09:38:10.287Z,47.7
2018-05-14T09:39:10.025Z,47.6
2018-05-14T09:43:07.424Z,46.5
2018-05-14T09:43:38.069Z,46.5
2018-05-14T09:44:08.725Z,47.1
2018-05-14T09:44:39.809Z,47.1
2018-05-14T09:46:05.885Z,47.5
2018-05-14T09:46:36.538Z,47.5
2018-05-14T09:49:03.844Z,47.4
2018-05-14T09:50:03.575Z,47.6
2018-05-14T09:51:03.027Z,46.7
2018-05-14T09:56:00.245Z,45.8
2018-05-14T09:56:30.889Z,45.8
2018-05-14T09:57:01.158Z,44.3
2018-05-14T09:57:31.806Z,44.3
2018-05-14T09:59:57.620Z,44.3
2018-05-14T10:02:55.977Z,45.3
2018-05-14T10:04:54.813Z,45
2018-05-14T10:12:50.482Z,44.7
2018-05-14T10:13:49.821Z,43.5
2018-05-14T10:15:48.549Z,43.8
2018-05-14T10:16:48.388Z,44.1
2018-05-14T10:19:46.499Z,43.9
2018-05-14T10:21:45.344Z,46.3
2018-05-14T10:22:44.683Z,45.3
2018-05-14T10:24:44.100Z,43.4
2018-05-14T10:27:41.990Z,43.6
2018-05-14T10:28:12.533Z,43.6
2018-05-14T10:33:39.016Z,41.8
2018-05-14T10:36:37.205Z,41.4
2018-05-14T10:44:32.788Z,40
2018-05-14T10:45:32.405Z,39.8
2018-05-14T10:47:31.142Z,40.8
2018-05-14T10:50:29.762Z,39.4
2018-05-14T10:52:28.290Z,38.1
2018-05-14T10:56:26.294Z,36.1
2018-05-14T10:59:24.918Z,36
2018-05-14T11:00:24.198Z,37.8
2018-05-14T11:03:22.819Z,38.9
2018-05-14T11:04:22.051Z,38.4
2018-05-14T11:17:15.239Z,30.4
2018-05-14T11:25:11.311Z,34.1
2018-05-14T11:25:41.849Z,34.1
2018-05-14T11:34:07.009Z,31.2
2018-05-14T11:36:06.062Z,30.8
2018-05-14T11:36:36.711Z,30.8
2018-05-14T11:37:06.960Z,31.8
2018-05-14T11:37:37.615Z,31.8
2018-05-14T11:57:55.525Z,29.7
2018-05-14T15:43:42.726Z,24.5
2018-05-14T16:10:32.995Z,28.4
2018-05-14T16:11:32.328Z,28.4
2018-05-14T16:15:30.729Z,29
2018-05-14T16:17:29.951Z,27.9
2018-05-14T16:21:28.569Z,28.4
2018-05-14T16:29:25.159Z,30.8
2018-05-14T16:30:24.385Z,29.2
2018-05-14T16:31:24.121Z,29.4
2018-05-14T16:53:14.147Z,31.8
2018-05-14T16:53:44.696Z,31.8
2018-05-14T17:04:08.811Z,32.7
2018-05-14T17:04:38.965Z,32.7
2018-05-14T17:22:59.621Z,32.3
2018-05-14T17:23:58.962Z,32.7
2018-05-14T17:24:58.814Z,34.6
2018-05-14T17:26:57.557Z,33.8
2018-05-14T17:29:56.286Z,35.9
2018-05-14T17:31:55.020Z,35.4
2018-05-14T17:34:53.757Z,35.6
2018-05-14T17:35:24.286Z,35.6
2018-05-14T17:35:54.946Z,35.8
2018-05-14T17:36:25.481Z,35.8
2018-05-14T17:37:51.919Z,37.5
2018-05-14T17:40:50.684Z,36.6
2018-05-14T17:41:49.919Z,37.5
2018-05-14T17:42:49.371Z,37.9
2018-05-14T17:45:47.888Z,39
2018-05-14T17:46:18.155Z,39
2018-05-14T17:47:46.969Z,37.4
2018-05-14T17:48:17.617Z,37.4
2018-05-14T17:48:48.268Z,38
2018-05-14T17:49:18.521Z,38
2018-05-14T17:49:49.163Z,37.8
2018-05-14T17:51:44.874Z,37.7
2018-05-14T17:53:43.714Z,37.5
2018-05-14T17:54:43.045Z,38.5
2018-05-14T17:55:42.386Z,37.8
2018-05-14T17:56:41.807Z,37.9
2018-05-14T17:57:41.551Z,37.1
2018-05-14T17:58:40.788Z,37.1
2018-05-14T17:59:11.485Z,37.1
2018-05-14T17:59:42.129Z,38.4
2018-05-14T18:01:39.235Z,38.7
2018-05-14T18:02:38.588Z,38.3
2018-05-14T18:03:38.029Z,37.4
2018-05-14T18:04:37.544Z,38
2018-05-14T18:05:37.290Z,38.7
2018-05-14T18:09:35.186Z,40.4
2018-05-14T18:10:34.713Z,40
2018-05-14T18:11:33.632Z,39.9
2018-05-14T18:12:33.473Z,39.5
2018-05-14T18:13:32.595Z,39.6
2018-05-14T18:14:03.033Z,39.6
2018-05-14T18:14:33.185Z,40
2018-05-14T18:15:31.821Z,40.3
2018-05-14T18:17:30.753Z,40.4
2018-05-14T18:19:29.063Z,40.2
2018-05-14T18:20:28.795Z,40.8
2018-05-14T18:21:28.524Z,40.5
2018-05-14T18:22:27.752Z,41.9
2018-05-14T18:23:27.196Z,41.8
2018-05-14T18:25:25.834Z,41.5
2018-05-14T18:26:25.664Z,41.3
2018-05-14T18:27:24.988Z,41.6
2018-05-14T18:29:23.720Z,41.4
2018-05-14T18:30:23.057Z,41.5
2018-05-14T18:31:22.693Z,40.6
2018-05-14T18:34:20.759Z,42.7
2018-05-14T18:35:20.140Z,42.5
2018-05-14T18:36:19.979Z,42.4
2018-05-14T18:38:18.595Z,42.8
2018-05-14T18:39:18.085Z,42.9
2018-05-14T18:40:17.118Z,43.6
2018-05-14T18:41:16.968Z,43.8
2018-05-14T18:42:16.315Z,43.7
2018-05-14T18:43:15.705Z,43.5
2018-05-14T18:45:14.337Z,43.8
2018-05-14T18:45:44.882Z,43.8
2018-05-14T18:46:15.539Z,44
2018-05-14T18:46:46.078Z,44
2018-05-14T18:48:12.611Z,44.3
2018-05-14T18:49:11.940Z,44.3
2018-05-14T18:50:11.393Z,44.6
2018-05-14T18:51:10.856Z,45
2018-05-14T18:53:09.691Z,45.1
2018-05-14T18:54:08.923Z,45.1
2018-05-14T18:55:08.762Z,45.3
2018-05-14T18:55:39.419Z,45.3
2018-05-14T18:56:09.964Z,45.4
2018-05-14T18:56:40.511Z,45.4
2018-05-14T18:57:10.773Z,45
2018-05-14T18:57:41.309Z,45
2018-05-14T18:58:11.454Z,45.8
2018-05-14T18:58:42.108Z,45.8
2018-05-14T19:00:05.599Z,45.6
2018-05-14T19:01:04.938Z,45.5
2018-05-14T19:02:04.789Z,45.8
2018-05-14T19:03:03.988Z,46.4
2018-05-14T19:04:03.443Z,46
2018-05-14T19:05:02.785Z,46.2
2018-05-14T19:06:02.027Z,46.5
2018-05-14T19:07:01.491Z,46.6
2018-05-14T19:08:00.834Z,46.6
2018-05-14T19:08:31.163Z,46.6
2018-05-14T19:09:01.819Z,46.8
2018-05-14T19:09:32.367Z,46.8
2018-05-14T19:10:58.887Z,47.4
2018-05-14T19:11:58.225Z,48.3
2018-05-14T19:12:57.956Z,48.3
2018-05-14T19:13:56.972Z,48.4
2018-05-14T19:14:56.318Z,48
2018-05-14T19:15:26.753Z,48
2018-05-14T19:15:57.081Z,48.1
2018-05-14T19:16:55.204Z,47.8
2018-05-14T19:17:54.937Z,48.6
2018-05-14T19:18:54.281Z,48.7
2018-05-14T19:19:53.613Z,49.4
2018-05-14T19:21:52.229Z,49.7
2018-05-14T19:22:51.687Z,49.3
2018-05-14T19:23:51.056Z,50
2018-05-14T19:24:50.304Z,50.1
2018-05-14T19:25:49.536Z,49.9
2018-05-14T19:26:19.904Z,49.9
2018-05-14T19:26:50.454Z,50.3
2018-05-14T19:27:21.102Z,50.3
2018-05-14T19:27:51.746Z,49.7
2018-05-14T19:28:22.288Z,49.7
2018-05-14T19:28:52.939Z,49.6
2018-05-14T19:29:23.713Z,49.6
2018-05-14T19:30:46.450Z,49.6
2018-05-14T19:31:46.065Z,49.7
2018-05-14T19:32:45.428Z,49.4
2018-05-14T19:33:44.943Z,49.2
2018-05-14T19:34:44.174Z,49.8
2018-05-14T19:35:43.587Z,49.4
2018-05-14T19:36:43.027Z,49.8
2018-05-14T19:37:13.278Z,49.8
2018-05-14T19:37:43.527Z,50.6
2018-05-14T19:38:13.777Z,50.6
2018-05-14T19:38:44.321Z,50.4
2018-05-14T19:39:14.573Z,50.4
2018-05-14T19:39:45.117Z,50.2
2018-05-14T19:40:15.561Z,50.2
2018-05-14T19:41:39.782Z,50.4
2018-05-14T19:42:38.921Z,51
2018-05-14T19:43:38.658Z,50.8
2018-05-14T19:44:37.995Z,50.9
2018-05-14T19:45:37.025Z,51.3
2018-05-14T19:46:36.347Z,51.1
2018-05-14T19:47:36.083Z,51
2018-05-14T19:48:35.211Z,50.8
2018-05-14T19:49:34.787Z,51.2
2018-05-14T19:50:34.025Z,51.4
2018-05-14T19:52:32.562Z,52
2018-05-14T19:53:32.196Z,51.8
2018-05-14T19:54:31.697Z,52.2
2018-05-14T19:55:31.035Z,52.6
2018-05-14T19:56:30.160Z,52.3
2018-05-14T19:57:29.295Z,52.9
2018-05-14T19:58:28.622Z,52.8
2018-05-14T19:59:28.353Z,53.2
2018-05-14T20:00:27.681Z,53.2
2018-05-14T20:01:27.014Z,53.6
2018-05-14T20:02:26.471Z,54
2018-05-14T20:03:25.907Z,53.8
2018-05-14T20:07:22.781Z,53.9
2018-05-14T20:08:22.008Z,54.4
2018-05-14T20:10:20.732Z,53.8
2018-05-14T20:10:51.158Z,53.8
2018-05-14T20:11:21.800Z,53.6
2018-05-14T20:12:19.632Z,53.6
2018-05-14T20:13:19.095Z,53.5
2018-05-14T20:14:18.326Z,53.9
2018-05-14T20:15:17.868Z,53.9
2018-05-14T20:16:17.198Z,54.1
2018-05-14T20:18:15.811Z,54.1
2018-05-14T20:19:15.148Z,54.1
2018-05-14T20:20:14.703Z,53.1
2018-05-14T20:20:44.915Z,53.1
2018-05-14T20:21:15.061Z,53.4
2018-05-14T20:22:12.986Z,53.3
2018-05-14T20:23:12.226Z,53
2018-05-14T20:24:11.565Z,53.4
2018-05-14T20:25:11.186Z,53
2018-05-14T20:26:10.517Z,53.6
2018-05-14T20:27:09.849Z,53.5
2018-05-14T20:28:09.189Z,53.1
2018-05-14T20:29:08.643Z,53.3
2018-05-14T20:30:07.629Z,53.4
2018-05-14T20:31:06.967Z,53.6
2018-05-14T20:32:06.196Z,53.2
2018-05-14T20:33:06.031Z,53.7
2018-05-14T20:34:04.866Z,53.6
2018-05-14T20:35:04.488Z,53.9
2018-05-14T20:35:34.926Z,53.9
2018-05-14T20:38:02.327Z,54.2
2018-05-14T20:39:01.845Z,55
2018-05-14T20:41:00.360Z,54.7
2018-05-14T20:42:59.049Z,54.8
2018-05-14T20:44:57.503Z,54.4
2018-05-14T20:45:57.128Z,54.4
2018-05-14T20:46:27.683Z,54.4
2018-05-14T20:46:58.236Z,54.1
2018-05-14T20:47:28.996Z,54.1
2018-05-14T20:48:54.812Z,54.8
2018-05-14T20:49:54.152Z,55.2
2018-05-14T20:50:53.885Z,55.2
2018-05-14T20:52:52.464Z,54.8
2018-05-14T20:53:51.686Z,54.8
2018-05-14T20:54:51.013Z,54.9
2018-05-14T20:55:50.240Z,55.8
2018-05-14T20:56:49.570Z,55.1
2018-05-14T20:57:48.914Z,55.5
2018-05-14T20:58:48.186Z,55.7
2018-05-14T20:59:47.565Z,55.7
2018-05-14T21:00:47.040Z,55.3
2018-05-14T21:02:45.656Z,56.6
2018-05-14T21:03:44.609Z,56.6
2018-05-14T21:05:43.585Z,57.2
2018-05-14T21:06:13.758Z,57.2
2018-05-14T21:06:44.342Z,56.2
2018-05-14T21:07:41.990Z,56.2
2018-05-14T21:08:41.338Z,56
2018-05-14T21:10:40.072Z,56.3
2018-05-14T21:11:39.300Z,56.4
2018-05-14T21:12:38.718Z,56.8
2018-05-14T21:13:37.942Z,56.9
2018-05-14T21:14:37.074Z,57.5
2018-05-14T21:16:36.052Z,57.1
2018-05-14T21:17:06.483Z,57.1
2018-05-14T21:17:36.915Z,56.9
2018-05-14T21:18:07.449Z,56.9
2018-05-14T21:18:38.091Z,56.7
2018-05-14T21:19:08.625Z,56.7
2018-05-14T21:20:33.233Z,57.1
2018-05-14T21:21:32.648Z,56.8
2018-05-14T21:23:30.879Z,57.2
2018-05-14T21:24:30.219Z,56.6
2018-05-14T21:26:28.854Z,57
2018-05-14T21:26:59.397Z,57
2018-05-14T21:27:30.057Z,57.1
2018-05-14T21:28:00.710Z,57.1
2018-05-14T21:28:31.163Z,57.1
2018-05-14T21:29:01.607Z,57.1
2018-05-14T21:29:32.265Z,57.4
2018-05-14T21:30:02.415Z,57.4
2018-05-14T21:31:25.320Z,57
2018-05-14T21:32:24.543Z,56.9
2018-05-14T21:33:23.955Z,56.8
2018-05-14T21:34:23.294Z,57
2018-05-14T21:37:21.023Z,57
2018-05-14T21:38:20.351Z,57.4